createdAt,value
2022-07-29T00:01:05.627Z,99941.66
2022-07-29T00:03:33.136Z,99936.19
2022-07-29T00:06:00.898Z,99937.16
2022-07-29T00:08:28.156Z,99938.06
2022-07-29T00:10:55.535Z,99936.41
2022-07-29T00:13:32.249Z,99938.66
2022-07-29T00:16:04.558Z,99939.63
2022-07-29T00:18:32.969Z,99936.56
2022-07-29T00:21:00.625Z,99940.69
2022-07-29T00:23:27.809Z,99936.34
2022-07-29T00:25:54.968Z,99944.50
2022-07-29T00:28:22.359Z,99937.88
2022-07-29T00:30:49.432Z,99943.59
2022-07-29T00:33:16.536Z,99946.75
2022-07-29T00:35:47.319Z,99937.44
2022-07-29T00:38:15.878Z,99943.88
2022-07-29T00:40:44.342Z,99947.63
2022-07-29T00:43:13.464Z,99943.06
2022-07-29T00:45:41.211Z,99943.28
2022-07-29T00:48:09.719Z,99948.84
2022-07-29T00:50:37.544Z,99936.59
2022-07-29T00:53:06.450Z,99944.56
2022-07-29T00:55:34.096Z,99945.63
2022-07-29T00:58:01.432Z,99944.69
2022-07-29T01:00:31.576Z,99947.13
2022-07-29T01:02:59.664Z,99940.22
2022-07-29T01:05:49.814Z,99937.53
2022-07-29T01:08:16.560Z,99938.69
2022-07-29T01:10:44.128Z,99934.22
2022-07-29T01:13:11.636Z,99928.00
2022-07-29T01:15:49.275Z,99928.38
2022-07-29T01:18:37.082Z,99930.88
2022-07-29T01:21:26.832Z,99936.47
2022-07-29T01:24:12.936Z,99935.66
2022-07-29T01:26:43.604Z,99932.75
2022-07-29T01:29:36.255Z,99936.25
2022-07-29T01:32:28.864Z,99937.59
2022-07-29T01:35:20.309Z,99941.56
2022-07-29T01:38:02.940Z,99933.47
2022-07-29T01:40:44.488Z,99936.09
2022-07-29T01:43:15.468Z,99937.59
2022-07-29T01:45:54.332Z,99930.19
2022-07-29T01:48:32.178Z,99941.03
2022-07-29T01:51:14.490Z,99934.75
2022-07-29T01:53:45.746Z,99927.31
2022-07-29T01:56:14.613Z,99925.22
2022-07-29T01:58:42.862Z,99933.75
2022-07-29T02:01:10.958Z,99932.63
2022-07-29T02:03:39.151Z,99922.88
2022-07-29T02:06:08.346Z,99931.56
2022-07-29T02:08:36.998Z,99928.06
2022-07-29T02:11:05.558Z,99927.47
2022-07-29T02:13:33.286Z,99935.19
2022-07-29T02:16:01.656Z,99925.22
2022-07-29T02:18:29.674Z,99928.75
2022-07-29T02:20:57.953Z,99928.38
2022-07-29T02:23:25.518Z,99927.31
2022-07-29T02:25:56.532Z,99932.19
2022-07-29T02:28:25.829Z,99929.25
2022-07-29T02:30:54.775Z,99920.19
2022-07-29T02:33:22.566Z,99922.88
2022-07-29T02:35:49.893Z,99924.31
2022-07-29T02:38:36.700Z,99926.78
2022-07-29T02:41:09.270Z,99914.63
2022-07-29T02:43:36.978Z,99919.72
2022-07-29T02:46:06.045Z,99911.84
2022-07-29T02:49:09.584Z,99915.16
2022-07-29T02:51:56.394Z,99917.59
2022-07-29T02:54:28.833Z,99910.03
2022-07-29T02:56:58.808Z,99911.28
2022-07-29T02:59:29.025Z,99913.34
2022-07-29T03:01:57.039Z,99918.72
2022-07-29T03:04:26.428Z,99910.22
2022-07-29T03:06:54.236Z,99914.56
2022-07-29T03:09:22.133Z,99906.31
2022-07-29T03:11:51.050Z,99913.19
2022-07-29T03:14:20.545Z,99915.84
2022-07-29T03:16:48.426Z,99920.28
2022-07-29T03:19:15.844Z,99921.50
2022-07-29T03:21:43.334Z,99917.16
2022-07-29T03:24:11.070Z,99908.38
2022-07-29T03:26:38.387Z,99913.75
2022-07-29T03:29:05.908Z,99914.56
2022-07-29T03:31:34.283Z,99916.72
2022-07-29T03:34:01.441Z,99917.53
2022-07-29T03:36:28.809Z,99922.75
2022-07-29T03:38:56.066Z,99921.94
2022-07-29T03:41:23.766Z,99932.75
2022-07-29T03:43:52.990Z,99925.13
2022-07-29T03:46:22.406Z,99921.62
2022-07-29T03:48:52.093Z,99928.81
2022-07-29T03:51:19.907Z,99924.69
2022-07-29T03:54:07.892Z,99927.22
2022-07-29T03:56:40.957Z,99916.06
2022-07-29T03:59:08.434Z,99921.03
2022-07-29T04:01:36.119Z,99927.38
2022-07-29T04:04:04.882Z,99934.19
2022-07-29T04:06:41.954Z,99930.25
2022-07-29T04:09:10.106Z,99936.66
2022-07-29T04:12:01.795Z,99938.31
2022-07-29T04:14:26.620Z,99930.84
2022-07-29T04:16:54.120Z,99927.72
2022-07-29T04:19:21.264Z,99935.97
2022-07-29T04:21:48.667Z,99937.88
2022-07-29T04:24:16.147Z,99937.44
2022-07-29T04:26:43.713Z,99927.66
2022-07-29T04:29:12.936Z,99939.28
2022-07-29T04:31:40.115Z,99935.13
2022-07-29T04:34:07.724Z,99931.06
2022-07-29T04:36:38.080Z,99931.56
2022-07-29T04:39:05.437Z,99938.50
2022-07-29T04:41:33.129Z,99933.72
2022-07-29T04:44:06.930Z,99940.25
2022-07-29T04:46:35.257Z,99947.75
2022-07-29T04:49:04.029Z,99942.69
2022-07-29T04:51:31.392Z,99944.62
2022-07-29T04:53:58.535Z,99935.94
2022-07-29T04:56:26.062Z,99936.78
2022-07-29T04:58:53.300Z,99933.63
2022-07-29T05:01:20.803Z,99936.97
2022-07-29T05:03:48.329Z,99940.00
2022-07-29T05:06:15.570Z,99944.53
2022-07-29T05:08:42.700Z,99934.91
2022-07-29T05:11:11.485Z,99936.69
2022-07-29T05:13:46.025Z,99937.28
2022-07-29T05:16:15.120Z,99938.13
2022-07-29T05:18:43.289Z,99929.66
2022-07-29T05:21:10.554Z,99942.69
2022-07-29T05:23:37.937Z,99935.66
2022-07-29T05:26:05.083Z,99940.50
2022-07-29T05:28:38.892Z,99931.59
2022-07-29T05:31:06.391Z,99945.44
2022-07-29T05:33:35.270Z,99944.91
2022-07-29T05:36:08.338Z,99931.56
2022-07-29T05:38:36.865Z,99939.72
2022-07-29T05:41:05.303Z,99940.75
2022-07-29T05:43:33.025Z,99944.66
2022-07-29T05:46:00.631Z,99941.69
2022-07-29T05:48:27.903Z,99943.06
2022-07-29T05:50:55.467Z,99951.66
2022-07-29T05:53:23.358Z,99956.31
2022-07-29T05:55:50.661Z,99952.19
2022-07-29T05:58:17.747Z,99955.19
2022-07-29T06:00:45.482Z,99948.97
2022-07-29T06:03:13.359Z,99952.47
2022-07-29T06:05:40.937Z,99949.41
2022-07-29T06:08:08.573Z,99937.69
2022-07-29T06:10:36.795Z,99945.13
2022-07-29T06:13:04.242Z,99945.69
2022-07-29T06:15:31.518Z,99952.44
2022-07-29T06:18:00.427Z,99942.47
2022-07-29T06:20:32.711Z,99954.97
2022-07-29T06:23:00.954Z,99962.53
2022-07-29T06:25:31.789Z,99956.63
2022-07-29T06:27:59.027Z,99963.13
2022-07-29T06:30:29.852Z,99962.69
2022-07-29T06:32:57.050Z,99963.56
2022-07-29T06:35:38.973Z,99961.91
2022-07-29T06:38:25.153Z,99972.19
2022-07-29T06:41:04.677Z,99974.69
2022-07-29T06:43:50.428Z,99977.66
2022-07-29T06:46:20.318Z,99980.75
2022-07-29T06:48:51.275Z,99980.31
2022-07-29T06:51:22.760Z,99973.38
2022-07-29T06:53:58.174Z,99975.53
2022-07-29T06:56:29.329Z,99965.34
2022-07-29T06:58:56.792Z,99969.03
2022-07-29T07:01:24.030Z,99968.31
2022-07-29T07:03:51.331Z,99971.03
2022-07-29T07:06:18.832Z,99976.66
2022-07-29T07:08:45.963Z,99967.41
2022-07-29T07:11:13.159Z,99964.03
2022-07-29T07:13:40.613Z,99969.41
2022-07-29T07:16:07.736Z,99958.19
2022-07-29T07:18:34.873Z,99966.22
2022-07-29T07:21:02.324Z,99975.59
2022-07-29T07:23:29.383Z,99964.38
2022-07-29T07:25:56.462Z,99964.47
2022-07-29T07:28:24.635Z,99958.38
2022-07-29T07:30:53.090Z,99964.38
2022-07-29T07:33:20.322Z,99966.69
2022-07-29T07:35:48.073Z,99960.97
2022-07-29T07:38:15.160Z,99958.00
2022-07-29T07:40:42.733Z,99960.75
2022-07-29T07:43:10.149Z,99962.31
2022-07-29T07:45:38.460Z,99961.63
2022-07-29T07:48:06.134Z,99962.72
2022-07-29T07:50:33.630Z,99953.25
2022-07-29T07:53:03.152Z,99948.63
2022-07-29T07:55:42.458Z,99954.13
2022-07-29T07:58:17.822Z,99960.66
2022-07-29T08:00:45.075Z,99960.16
2022-07-29T08:03:16.828Z,99960.12
2022-07-29T08:05:45.019Z,99959.84
2022-07-29T08:08:12.441Z,99955.97
2022-07-29T08:10:57.122Z,99963.34
2022-07-29T08:13:26.662Z,99952.38
2022-07-29T08:16:01.234Z,99952.88
2022-07-29T08:18:30.587Z,99951.47
2022-07-29T08:20:58.499Z,99957.72
2022-07-29T08:23:32.820Z,99946.22
2022-07-29T08:26:13.948Z,99945.47
2022-07-29T08:28:46.853Z,99950.88
2022-07-29T08:31:15.058Z,99950.34
2022-07-29T08:33:42.901Z,99950.56
2022-07-29T08:36:10.663Z,99946.88
2022-07-29T08:38:38.120Z,99939.34
2022-07-29T08:41:05.753Z,99944.59
2022-07-29T08:43:33.167Z,99948.69
2022-07-29T08:46:01.625Z,99943.56
2022-07-29T08:48:28.773Z,99947.28
2022-07-29T08:50:57.427Z,99944.56
2022-07-29T08:53:27.793Z,99943.19
2022-07-29T08:55:55.743Z,99935.25
2022-07-29T08:58:24.711Z,99953.63
2022-07-29T09:00:56.439Z,99945.47
2022-07-29T09:03:26.742Z,99944.09
2022-07-29T09:05:54.596Z,99939.66
2022-07-29T09:08:22.208Z,99940.25
2022-07-29T09:10:50.243Z,99938.56
2022-07-29T09:13:17.899Z,99938.59
2022-07-29T09:15:45.779Z,99945.72
2022-07-29T09:18:19.478Z,99931.87
2022-07-29T09:21:17.306Z,99925.72
2022-07-29T09:24:12.780Z,99923.28
2022-07-29T09:26:44.594Z,99919.72
2022-07-29T09:29:13.806Z,99924.75
2022-07-29T09:31:43.769Z,99926.84
2022-07-29T09:34:14.644Z,99916.16
2022-07-29T09:36:49.958Z,99915.47
2022-07-29T09:39:28.708Z,99911.00
2022-07-29T09:41:58.365Z,99916.94
2022-07-29T09:44:27.091Z,99913.22
2022-07-29T09:47:09.447Z,99905.72
2022-07-29T09:49:53.418Z,99905.50
2022-07-29T09:52:20.735Z,99904.09
2022-07-29T09:54:48.534Z,99894.47
2022-07-29T09:57:30.803Z,99899.53
2022-07-29T10:00:02.425Z,99898.47
2022-07-29T10:02:40.830Z,99888.94
2022-07-29T10:05:26.876Z,99895.06
2022-07-29T10:08:03.741Z,99897.94
2022-07-29T10:10:34.830Z,99890.69
2022-07-29T10:13:11.029Z,99889.47
2022-07-29T10:15:47.415Z,99894.69
2022-07-29T10:18:15.663Z,99887.28
2022-07-29T10:20:43.152Z,99883.94
2022-07-29T10:23:10.689Z,99894.91
2022-07-29T10:25:38.019Z,99890.22
2022-07-29T10:28:06.678Z,99888.53
2022-07-29T10:30:33.860Z,99879.59
2022-07-29T10:33:19.617Z,99876.50
2022-07-29T10:36:19.513Z,99876.72
2022-07-29T10:39:11.191Z,99869.19
2022-07-29T10:42:13.167Z,99870.97
2022-07-29T10:44:44.679Z,99871.25
2022-07-29T10:47:22.236Z,99864.25
2022-07-29T10:50:01.296Z,99863.59
2022-07-29T10:52:50.916Z,99857.16
2022-07-29T10:55:43.219Z,99862.03
2022-07-29T10:58:19.541Z,99864.03
2022-07-29T11:00:49.377Z,99857.94
2022-07-29T11:03:50.719Z,99855.56
2022-07-29T11:06:26.319Z,99848.47
2022-07-29T11:09:18.366Z,99843.41
2022-07-29T11:11:51.517Z,99834.09
2022-07-29T11:14:53.444Z,99838.03
2022-07-29T11:17:20.649Z,99833.69
2022-07-29T11:19:51.970Z,99836.03
2022-07-29T11:22:36.054Z,99828.56
2022-07-29T11:25:17.390Z,99821.88
2022-07-29T11:27:48.051Z,99814.75
2022-07-29T11:30:15.566Z,99825.78
2022-07-29T11:32:45.054Z,99819.56
2022-07-29T11:35:38.500Z,99811.59
2022-07-29T11:38:23.723Z,99805.34
2022-07-29T11:41:27.324Z,99814.97
2022-07-29T11:43:56.430Z,99803.84
2022-07-29T11:46:43.971Z,99808.47
2022-07-29T11:49:11.652Z,99802.53
2022-07-29T11:51:48.099Z,99794.75
2022-07-29T11:54:18.248Z,99800.88
2022-07-29T11:56:55.040Z,99795.28
2022-07-29T11:59:22.296Z,99788.94
2022-07-29T12:02:25.522Z,99790.75
2022-07-29T12:04:55.384Z,99795.87
2022-07-29T12:07:35.040Z,99793.31
2022-07-29T12:10:04.623Z,99793.00
2022-07-29T12:12:34.736Z,99800.97
2022-07-29T12:15:14.251Z,99790.31
2022-07-29T12:17:43.066Z,99776.66
2022-07-29T12:20:10.336Z,99781.72
2022-07-29T12:22:44.465Z,99782.41
2022-07-29T12:25:32.974Z,99782.16
2022-07-29T12:28:02.679Z,99774.78
2022-07-29T12:30:41.805Z,99777.50
2022-07-29T12:33:16.369Z,99768.62
2022-07-29T12:35:58.056Z,99762.28
2022-07-29T12:38:30.971Z,99753.94
2022-07-29T12:40:58.657Z,99760.34
2022-07-29T12:43:26.567Z,99758.16
2022-07-29T12:45:55.584Z,99750.97
2022-07-29T12:48:41.050Z,99746.81
2022-07-29T12:51:09.840Z,99748.94
2022-07-29T12:53:37.670Z,99742.72
2022-07-29T12:56:20.579Z,99745.16
2022-07-29T12:58:51.313Z,99737.09
2022-07-29T13:01:20.984Z,99730.78
2022-07-29T13:04:01.519Z,99730.84
2022-07-29T13:06:49.609Z,99727.72
2022-07-29T13:09:20.727Z,99734.16
2022-07-29T13:11:50.373Z,99728.38
2022-07-29T13:14:33.595Z,99725.94
2022-07-29T13:17:08.781Z,99725.81
2022-07-29T13:19:37.422Z,99710.41
2022-07-29T13:22:05.361Z,99709.16
2022-07-29T13:24:32.461Z,99703.75
2022-07-29T13:27:00.409Z,99705.25
2022-07-29T13:29:31.464Z,99706.28
2022-07-29T13:31:59.426Z,99699.62
2022-07-29T13:34:26.898Z,99698.59
2022-07-29T13:36:54.476Z,99687.56
2022-07-29T13:39:21.593Z,99687.31
2022-07-29T13:41:48.667Z,99689.22
2022-07-29T13:44:16.645Z,99685.25
2022-07-29T13:46:43.707Z,99689.44
2022-07-29T13:49:12.336Z,99681.09
2022-07-29T13:51:39.949Z,99683.72
2022-07-29T13:54:07.014Z,99676.19
2022-07-29T13:56:35.071Z,99681.59
2022-07-29T13:59:02.773Z,99674.09
2022-07-29T14:01:31.389Z,99680.69
2022-07-29T14:03:58.898Z,99679.69
2022-07-29T14:06:26.019Z,99673.59
2022-07-29T14:08:53.103Z,99665.87
2022-07-29T14:11:20.819Z,99668.94
2022-07-29T14:13:47.941Z,99660.97
2022-07-29T14:16:16.069Z,99656.34
2022-07-29T14:18:43.616Z,99656.03
2022-07-29T14:21:10.738Z,99665.00
2022-07-29T14:23:38.314Z,99651.97
2022-07-29T14:26:15.815Z,99653.66
2022-07-29T14:28:44.752Z,99653.69
2022-07-29T14:31:12.178Z,99642.22
2022-07-29T14:33:39.470Z,99650.53
2022-07-29T14:36:06.581Z,99646.81
2022-07-29T14:38:33.961Z,99643.28
2022-07-29T14:41:01.753Z,99636.91
2022-07-29T14:43:30.017Z,99639.97
2022-07-29T14:46:02.886Z,99639.06
2022-07-29T14:48:31.219Z,99641.94
2022-07-29T14:51:04.578Z,99636.00
2022-07-29T14:53:32.838Z,99635.34
2022-07-29T14:56:10.326Z,99635.53
2022-07-29T14:58:49.170Z,99629.34
2022-07-29T15:01:19.619Z,99622.09
2022-07-29T15:03:46.835Z,99622.88
2022-07-29T15:06:13.988Z,99616.47
2022-07-29T15:08:41.528Z,99619.09
2022-07-29T15:11:08.844Z,99617.59
2022-07-29T15:13:36.022Z,99608.59
2022-07-29T15:16:03.669Z,99616.72
2022-07-29T15:18:31.067Z,99612.00
2022-07-29T15:20:59.206Z,99613.78
2022-07-29T15:23:26.562Z,99603.19
2022-07-29T15:25:53.653Z,99605.69
2022-07-29T15:28:20.739Z,99604.56
2022-07-29T15:30:48.263Z,99592.31
2022-07-29T15:33:15.328Z,99599.41
2022-07-29T15:35:42.405Z,99595.59
2022-07-29T15:38:09.802Z,99605.09
2022-07-29T15:40:39.071Z,99604.87
2022-07-29T15:43:06.881Z,99602.34
2022-07-29T15:45:40.370Z,99597.97
2022-07-29T15:48:09.189Z,99590.34
2022-07-29T15:50:36.591Z,99587.91
2022-07-29T15:53:03.960Z,99594.16
2022-07-29T15:55:31.074Z,99593.12
2022-07-29T15:58:00.665Z,99589.16
2022-07-29T16:00:28.120Z,99596.81
2022-07-29T16:02:56.888Z,99588.47
2022-07-29T16:05:24.064Z,99596.37
2022-07-29T16:07:51.151Z,99600.75
2022-07-29T16:10:18.557Z,99589.19
2022-07-29T16:12:45.658Z,99592.88
2022-07-29T16:15:12.834Z,99583.41
2022-07-29T16:17:40.261Z,99593.75
2022-07-29T16:20:08.135Z,99593.12
2022-07-29T16:22:35.249Z,99587.94
2022-07-29T16:25:03.011Z,99587.94
2022-07-29T16:27:31.328Z,99586.12
2022-07-29T16:30:06.970Z,99585.12
2022-07-29T16:32:34.617Z,99582.09
2022-07-29T16:35:02.958Z,99578.62
2022-07-29T16:37:33.754Z,99573.63
2022-07-29T16:40:01.581Z,99576.25
2022-07-29T16:42:45.529Z,99574.31
2022-07-29T16:45:15.065Z,99569.41
2022-07-29T16:47:42.577Z,99571.28
2022-07-29T16:50:09.820Z,99574.13
2022-07-29T16:52:38.215Z,99571.00
2022-07-29T16:55:05.913Z,99568.41
2022-07-29T16:57:33.142Z,99577.28
2022-07-29T17:00:00.537Z,99579.03
2022-07-29T17:02:27.727Z,99575.06
2022-07-29T17:04:55.029Z,99568.59
2022-07-29T17:07:22.467Z,99582.09
2022-07-29T17:09:53.846Z,99566.94
2022-07-29T17:12:22.756Z,99569.72
2022-07-29T17:14:49.839Z,99573.69
2022-07-29T17:17:20.923Z,99567.22
2022-07-29T17:20:05.557Z,99573.87
2022-07-29T17:22:32.733Z,99580.47
2022-07-29T17:24:59.804Z,99579.94
2022-07-29T17:27:28.391Z,99576.97
2022-07-29T17:29:55.552Z,99575.63
2022-07-29T17:32:22.677Z,99570.50
2022-07-29T17:34:50.297Z,99567.81
2022-07-29T17:37:17.438Z,99567.37
2022-07-29T17:39:44.613Z,99564.69
2022-07-29T17:42:13.938Z,99574.31
2022-07-29T17:44:41.511Z,99576.53
2022-07-29T17:47:15.554Z,99566.22
2022-07-29T17:49:45.071Z,99576.16
2022-07-29T17:52:12.179Z,99582.84
2022-07-29T17:54:39.253Z,99583.22
2022-07-29T17:57:06.680Z,99568.81
2022-07-29T17:59:33.754Z,99575.44
2022-07-29T18:02:03.817Z,99593.50
2022-07-29T18:04:31.591Z,99590.28
2022-07-29T18:06:58.894Z,99600.97
2022-07-29T18:09:26.172Z,99589.00
2022-07-29T18:11:53.529Z,99605.37
2022-07-29T18:14:20.681Z,99589.06
2022-07-29T18:16:47.783Z,99601.06
2022-07-29T18:19:16.171Z,99596.19
2022-07-29T18:21:51.039Z,99589.69
2022-07-29T18:24:27.531Z,99590.75
2022-07-29T18:26:54.815Z,99600.53
2022-07-29T18:29:22.373Z,99601.38
2022-07-29T18:31:50.133Z,99602.44
2022-07-29T18:34:17.342Z,99610.31
2022-07-29T18:36:45.851Z,99604.34
2022-07-29T18:39:20.619Z,99599.41
2022-07-29T18:41:51.272Z,99603.47
2022-07-29T18:44:22.101Z,99604.81
2022-07-29T18:46:51.860Z,99614.56
2022-07-29T18:49:19.573Z,99610.25
2022-07-29T18:51:46.902Z,99622.47
2022-07-29T18:54:14.481Z,99610.22
2022-07-29T18:56:41.608Z,99610.47
2022-07-29T18:59:08.754Z,99613.19
2022-07-29T19:01:37.839Z,99610.44
2022-07-29T19:04:05.308Z,99613.41
2022-07-29T19:06:32.403Z,99603.38
2022-07-29T19:09:00.173Z,99612.34
2022-07-29T19:11:27.377Z,99615.31
2022-07-29T19:13:54.479Z,99612.84
2022-07-29T19:16:21.896Z,99622.88
2022-07-29T19:18:49.111Z,99627.75
2022-07-29T19:21:16.195Z,99620.69
2022-07-29T19:24:01.548Z,99627.72
2022-07-29T19:26:36.298Z,99615.22
2022-07-29T19:29:04.362Z,99621.44
2022-07-29T19:31:31.650Z,99623.31
2022-07-29T19:33:59.230Z,99630.66
2022-07-29T19:36:27.331Z,99620.56
2022-07-29T19:38:54.496Z,99616.22
2022-07-29T19:41:21.610Z,99616.22
2022-07-29T19:43:50.530Z,99609.84
2022-07-29T19:46:21.591Z,99615.47
2022-07-29T19:48:49.952Z,99620.91
2022-07-29T19:51:17.464Z,99620.91
2022-07-29T19:53:44.561Z,99625.75
2022-07-29T19:56:12.051Z,99622.97
2022-07-29T19:58:40.798Z,99624.28
2022-07-29T20:01:10.340Z,99632.63
2022-07-29T20:03:41.124Z,99620.06
2022-07-29T20:06:08.602Z,99617.31
2022-07-29T20:08:35.837Z,99618.91
2022-07-29T20:11:03.458Z,99616.19
2022-07-29T20:13:33.054Z,99612.91
2022-07-29T20:16:01.221Z,99622.66
2022-07-29T20:18:28.686Z,99610.72
2022-07-29T20:20:57.478Z,99605.53
2022-07-29T20:23:24.643Z,99620.81
2022-07-29T20:25:52.041Z,99619.94
2022-07-29T20:28:21.178Z,99617.81
2022-07-29T20:30:48.537Z,99611.78
2022-07-29T20:33:16.700Z,99621.63
2022-07-29T20:35:43.908Z,99627.03
2022-07-29T20:38:13.933Z,99621.31
2022-07-29T20:40:45.539Z,99634.28
2022-07-29T20:43:12.696Z,99638.06
2022-07-29T20:45:39.956Z,99643.44
2022-07-29T20:48:08.328Z,99646.53
2022-07-29T20:50:35.972Z,99644.84
2022-07-29T20:53:03.264Z,99654.19
2022-07-29T20:55:32.057Z,99651.72
2022-07-29T20:57:59.251Z,99651.31
2022-07-29T21:00:26.468Z,99653.59
2022-07-29T21:02:54.112Z,99652.50
2022-07-29T21:05:21.269Z,99672.84
2022-07-29T21:07:48.400Z,99681.81
2022-07-29T21:10:18.207Z,99677.44
2022-07-29T21:12:48.292Z,99663.81
2022-07-29T21:15:16.332Z,99656.50
2022-07-29T21:17:47.191Z,99664.69
2022-07-29T21:20:15.592Z,99674.66
2022-07-29T21:22:43.690Z,99675.25
2022-07-29T21:25:11.490Z,99670.03
2022-07-29T21:27:57.122Z,99685.72
2022-07-29T21:30:24.530Z,99681.22
2022-07-29T21:32:51.682Z,99681.22
2022-07-29T21:36:02.136Z,99679.81
2022-07-29T21:38:06.164Z,99686.41
2022-07-29T21:40:33.220Z,99694.72
2022-07-29T21:43:00.297Z,99694.72
2022-07-29T21:45:27.751Z,99697.03
2022-07-29T21:47:54.851Z,99689.41
2022-07-29T21:50:21.948Z,99694.75
2022-07-29T21:52:49.349Z,99683.41
2022-07-29T21:55:16.421Z,99684.22
2022-07-29T21:57:46.391Z,99693.12
2022-07-29T22:00:16.751Z,99701.78
2022-07-29T22:02:44.739Z,99693.22
2022-07-29T22:05:12.355Z,99703.47
2022-07-29T22:07:56.541Z,99702.16
2022-07-29T22:10:26.046Z,99701.34
2022-07-29T22:12:54.164Z,99700.44
2022-07-29T22:15:21.611Z,99696.84
2022-07-29T22:17:49.085Z,99703.47
2022-07-29T22:20:16.266Z,99711.25
2022-07-29T22:22:43.316Z,99703.37
2022-07-29T22:25:11.187Z,99695.97
2022-07-29T22:27:38.863Z,99698.00
2022-07-29T22:30:07.657Z,99703.06
2022-07-29T22:32:35.165Z,99710.63
2022-07-29T22:35:02.250Z,99708.41
2022-07-29T22:37:29.365Z,99713.25
2022-07-29T22:39:56.834Z,99700.69
2022-07-29T22:42:24.142Z,99702.31
2022-07-29T22:44:51.489Z,99696.66
2022-07-29T22:47:18.871Z,99699.16
2022-07-29T22:50:06.655Z,99707.62
2022-07-29T22:52:34.031Z,99694.03
2022-07-29T22:55:01.123Z,99699.91
2022-07-29T22:57:28.380Z,99709.66
2022-07-29T22:59:55.749Z,99703.69
2022-07-29T23:02:22.817Z,99695.47
2022-07-29T23:04:49.887Z,99702.88
2022-07-29T23:07:17.722Z,99688.31
2022-07-29T23:09:44.855Z,99687.25
2022-07-29T23:12:11.914Z,99689.59
2022-07-29T23:14:39.409Z,99688.78
2022-07-29T23:17:06.628Z,99685.19
2022-07-29T23:19:33.801Z,99687.53
2022-07-29T23:22:01.179Z,99679.31
2022-07-29T23:24:28.282Z,99679.31
2022-07-29T23:26:55.430Z,99685.28
2022-07-29T23:29:22.830Z,99687.16
2022-07-29T23:31:49.953Z,99677.75
2022-07-29T23:34:17.135Z,99679.41
2022-07-29T23:36:44.499Z,99672.34
2022-07-29T23:39:12.317Z,99673.31
2022-07-29T23:41:39.591Z,99667.81
2022-07-29T23:44:07.294Z,99662.53
2022-07-29T23:46:34.462Z,99664.28
2022-07-29T23:49:01.652Z,99657.94
2022-07-29T23:51:29.246Z,99657.13
2022-07-29T23:53:56.568Z,99658.28
2022-07-29T23:56:23.897Z,99661.59
2022-07-29T23:58:51.328Z,99660.41
